Terminal Aerodrome Forecast
Issued by NWS

Home | Current Version | Previous Version | Text Only | Print | Product List | Glossary On
Versions: 1 2 3 4 5 6 7 8 9 10 11 12 13 14
000
FTUS44 KLZK 232300
TAFLLQ
TAF
KLLQ 232320Z 2400/2424 14008KT P6SM SCT035 BKN050
     FM240300 15008KT P6SM VCTS BKN035CB OVC050
     FM241600 17014G22KT P6SM VCTS BKN035CB OVC080 PROB30 2420/2424
      3SM -TSRA BR BKN025CB OVC040=

USA.gov is the U.S. government's official web portal to all federal, state and local government web resources and services.